Time;durP1;ratioP1;P1;durP2;ratioP2;P2;SDS_P1;SDS_P2;PMS_P1;PMS_P2;Temp;Humidity;BMP_temperature;BMP_pressure;BME280_temperature;BME280_humidity;BME280_pressure;Samples;Min_cycle;Max_cycle;Signal;HPM_P1;HPM_P2
2024/01/30 00:00:13;;;;;;;14.57;11.90;;;;;;;;;;4977344;28;20152;-85
2024/01/30 00:02:39;;;;;;;17.83;13.02;;;;;;;;;;4992591;28;20112;-84
2024/01/30 00:05:05;;;;;;;18.98;13.50;;;;;;;;;;4979139;28;20057;-84
2024/01/30 00:07:32;;;;;;;17.40;12.27;;;;;;;;;;4993769;28;20521;-85
2024/01/30 00:09:58;;;;;;;17.15;12.23;;;;;;;;;;4973935;28;20169;-85
2024/01/30 00:12:24;;;;;;;17.00;13.45;;;;;;;;;;4965345;28;20407;-85
2024/01/30 00:14:50;;;;;;;17.10;12.07;;;;;;;;;;4963728;28;20089;-85
2024/01/30 00:17:16;;;;;;;17.52;12.25;;;;;;;;;;4977890;28;20042;-84
2024/01/30 00:19:43;;;;;;;16.75;12.43;;;;;;;;;;4993529;28;20121;-85
2024/01/30 00:22:09;;;;;;;19.02;13.50;;;;;;;;;;4978086;28;20042;-85
2024/01/30 00:24:35;;;;;;;16.23;12.57;;;;;;;;;;4992941;28;20081;-84
2024/01/30 00:27:01;;;;;;;18.13;13.35;;;;;;;;;;4992647;28;20084;-85
2024/01/30 00:29:30;;;;;;;17.13;13.18;;;;;;;;;;4987728;28;20042;-84
2024/01/30 00:31:56;;;;;;;18.42;13.07;;;;;;;;;;4991917;28;20112;-84
2024/01/30 00:34:22;;;;;;;17.98;12.70;;;;;;;;;;4992687;28;20128;-85
2024/01/30 00:36:48;;;;;;;17.33;12.52;;;;;;;;;;4961136;28;20042;-83
2024/01/30 00:39:15;;;;;;;15.68;12.10;;;;;;;;;;4945445;28;20042;-85
2024/01/30 00:41:42;;;;;;;16.02;11.85;;;;;;;;;;4960788;28;20046;-83
2024/01/30 00:44:08;;;;;;;17.95;13.13;;;;;;;;;;4974504;28;20149;-84
2024/01/30 00:46:34;;;;;;;17.90;12.23;;;;;;;;;;4977970;28;20046;-84
2024/01/30 00:49:00;;;;;;;16.88;12.38;;;;;;;;;;4990651;28;20379;-84
2024/01/30 00:51:27;;;;;;;15.88;12.55;;;;;;;;;;4977144;28;20505;-84
2024/01/30 00:53:53;;;;;;;19.05;13.45;;;;;;;;;;4972828;28;20038;-85
2024/01/30 00:56:19;;;;;;;15.10;12.85;;;;;;;;;;4993700;28;20038;-84
2024/01/30 00:58:45;;;;;;;17.80;13.13;;;;;;;;;;4960992;28;20046;-84
2024/01/30 01:01:12;;;;;;;17.08;13.02;;;;;;;;;;4961640;28;20133;-84
2024/01/30 01:03:38;;;;;;;17.98;12.20;;;;;;;;;;4960688;28;20069;-85
2024/01/30 01:06:04;;;;;;;15.98;12.10;;;;;;;;;;4994292;28;20141;-85
2024/01/30 01:08:30;;;;;;;18.95;14.02;;;;;;;;;;4961072;28;20161;-84
2024/01/30 01:10:56;;;;;;;15.85;12.35;;;;;;;;;;4976980;28;20177;-84
2024/01/30 01:13:22;;;;;;;18.42;13.40;;;;;;;;;;4992963;28;20481;-84
2024/01/30 01:15:48;;;;;;;18.30;13.20;;;;;;;;;;4993974;28;20469;-84
2024/01/30 01:18:17;;;;;;;17.08;12.02;;;;;;;;;;4960073;28;20125;-85
2024/01/30 01:20:44;;;;;;;15.38;12.30;;;;;;;;;;4977074;28;20458;-85
2024/01/30 01:23:10;;;;;;;18.58;13.10;;;;;;;;;;4992567;28;20062;-85
2024/01/30 01:25:36;;;;;;;15.20;11.50;;;;;;;;;;4976088;28;20581;-84
2024/01/30 01:28:03;;;;;;;16.73;12.93;;;;;;;;;;4974555;28;20047;-84
2024/01/30 01:30:30;;;;;;;15.60;11.88;;;;;;;;;;4995552;28;20068;-84
2024/01/30 01:32:57;;;;;;;15.68;12.00;;;;;;;;;;4993345;28;20059;-85
2024/01/30 01:35:24;;;;;;;18.38;12.63;;;;;;;;;;4991845;28;20125;-84
2024/01/30 01:37:59;;;;;;;17.48;11.68;;;;;;;;;;5026759;28;20054;-85
2024/01/30 01:40:25;;;;;;;16.17;11.57;;;;;;;;;;5001549;28;20395;-85
2024/01/30 01:42:52;;;;;;;15.75;11.93;;;;;;;;;;4993447;28;20090;-84
2024/01/30 01:45:18;;;;;;;15.35;12.55;;;;;;;;;;4993356;28;20570;-84
2024/01/30 01:47:47;;;;;;;17.65;12.77;;;;;;;;;;4995849;28;20048;-84
2024/01/30 01:50:13;;;;;;;17.30;13.20;;;;;;;;;;4995166;28;20098;-84
2024/01/30 01:52:41;;;;;;;15.20;10.98;;;;;;;;;;4994775;28;20035;-84
2024/01/30 01:55:07;;;;;;;17.58;12.35;;;;;;;;;;4978271;28;20039;-84
2024/01/30 01:57:34;;;;;;;17.58;12.02;;;;;;;;;;5009943;28;20065;-84
2024/01/30 02:00:02;;;;;;;16.42;11.65;;;;;;;;;;4994342;28;20046;-85
2024/01/30 02:02:31;;;;;;;15.85;12.32;;;;;;;;;;4981505;28;20048;-84
2024/01/30 02:05:00;;;;;;;18.30;12.57;;;;;;;;;;4997979;28;20046;-85
2024/01/30 02:07:27;;;;;;;17.75;12.50;;;;;;;;;;4970165;28;20030;-84
2024/01/30 02:09:53;;;;;;;21.38;12.90;;;;;;;;;;4961400;28;20043;-84
2024/01/30 02:12:19;;;;;;;16.70;11.63;;;;;;;;;;4977437;28;20086;-85
2024/01/30 02:14:46;;;;;;;14.40;11.50;;;;;;;;;;4981608;28;20046;-84
2024/01/30 02:17:12;;;;;;;16.27;11.30;;;;;;;;;;4997954;28;20042;-85
2024/01/30 02:19:38;;;;;;;16.70;12.13;;;;;;;;;;4996129;28;20038;-84
2024/01/30 02:22:05;;;;;;;16.05;12.45;;;;;;;;;;4979802;28;20181;-85
2024/01/30 02:24:31;;;;;;;17.27;12.65;;;;;;;;;;4978354;28;20046;-84
2024/01/30 02:26:57;;;;;;;16.27;12.23;;;15.20;83.40;;;;;;4978863;28;20062;-84
2024/01/30 02:29:23;;;;;;;15.98;11.98;;;;;;;;;;4995580;28;20529;-85
2024/01/30 02:31:49;;;;;;;14.52;11.73;;;;;;;;;;4980274;28;20076;-85
2024/01/30 02:34:15;;;;;;;16.23;12.50;;;;;;;;;;4987745;28;20042;-84
2024/01/30 02:36:44;;;;;;;16.90;11.88;;;;;;;;;;4996083;28;20112;-84
2024/01/30 02:39:11;;;;;;;15.60;11.57;;;;;;;;;;4988110;28;20054;-85
2024/01/30 02:41:37;;;;;;;19.30;11.52;;;;;;;;;;4990576;28;20120;-85
2024/01/30 02:44:03;;;;;;;16.25;11.80;;;;;;;;;;4978901;28;20042;-84
2024/01/30 02:46:30;;;;;;;15.38;11.57;;;;;;;;;;4996484;28;20050;-84
2024/01/30 02:48:56;;;;;;;16.02;11.60;;;;;;;;;;4985865;28;20050;-84
2024/01/30 02:51:22;;;;;;;13.63;10.30;;;;;;;;;;5009191;28;20073;-84
2024/01/30 02:53:48;;;;;;;15.88;11.02;;;;;;;;;;4997707;28;20042;-85
2024/01/30 02:56:15;;;;;;;16.98;12.55;;;;;;;;;;4997391;28;20077;-84
2024/01/30 02:58:41;;;;;;;14.50;11.55;;;;;;;;;;4979580;28;20121;-85
2024/01/30 03:01:07;;;;;;;17.08;11.98;;;;;;;;;;4982399;28;20042;-85
2024/01/30 03:03:36;;;;;;;14.35;11.90;;;;;;;;;;4979322;28;20128;-85
2024/01/30 03:06:02;;;;;;;17.02;10.48;;;;;;;;;;4981805;28;20044;-84
2024/01/30 03:08:28;;;;;;;16.25;11.70;;;;;;;;;;4991945;28;20054;-84
2024/01/30 03:10:55;;;;;;;16.80;12.40;;;;;;;;;;4994704;28;20379;-85
2024/01/30 03:13:24;;;;;;;16.85;11.95;;;;;;;;;;4997671;28;20080;-85
2024/01/30 03:15:51;;;;;;;14.95;11.60;;;;;;;;;;4983076;28;20049;-85
2024/01/30 03:18:17;;;;;;;18.00;12.10;;;;;;;;;;4982447;28;20034;-83
2024/01/30 03:20:43;;;;;;;15.88;11.80;;;;;;;;;;4962312;28;20041;-85
2024/01/30 03:23:10;;;;;;;16.17;11.55;;;;;;;;;;4996229;28;20038;-84
2024/01/30 03:25:36;;;;;;;14.60;12.13;;;;;;;;;;4993141;28;20049;-85
2024/01/30 03:28:02;;;;;;;14.70;11.32;;;;;;;;;;4993732;28;20044;-85
2024/01/30 03:30:28;;;;;;;15.77;12.18;;;;;;;;;;4961755;28;20035;-85
2024/01/30 03:32:54;;;;;;;15.73;12.48;;;;;;;;;;4973320;28;20125;-84
2024/01/30 03:35:20;;;;;;;16.88;12.38;;;;;;;;;;4980768;28;20073;-85
2024/01/30 03:37:46;;;;;;;18.23;11.98;;;;;;;;;;4995139;28;20042;-84
2024/01/30 03:40:13;;;;;;;16.45;11.77;;;;;;;;;;4978125;28;20057;-85
2024/01/30 03:42:39;;;;;;;16.35;11.45;;;;;;;;;;4977164;28;20042;-84
2024/01/30 03:45:06;;;;;;;16.75;12.65;;;;;;;;;;4976338;28;20445;-84
2024/01/30 03:47:32;;;;;;;15.27;11.43;;;;;;;;;;5024917;28;20042;-84
2024/01/30 03:49:58;;;;;;;17.50;12.60;;;;;;;;;;4995514;28;20086;-84
2024/01/30 03:52:24;;;;;;;17.33;11.77;;;;;;;;;;4996199;28;20077;-84
2024/01/30 03:54:50;;;;;;;12.05;10.02;;;;;;;;;;4979275;28;20074;-84
2024/01/30 03:57:16;;;;;;;16.77;11.65;;;;;;;;;;4989564;28;20118;-84
2024/01/30 03:59:45;;;;;;;15.43;11.23;;;;;;;;;;4962790;28;20046;-84
2024/01/30 04:02:12;;;;;;;17.38;11.93;;;;;;;;;;4997256;28;20074;-84
2024/01/30 04:04:38;;;;;;;18.17;12.85;;;;;;;;;;4995577;28;20045;-84
2024/01/30 04:07:04;;;;;;;19.83;11.05;;;;;;;;;;4977888;28;20043;-84
2024/01/30 04:09:31;;;;;;;16.35;11.35;;;;;;;;;;4994174;28;20051;-85
2024/01/30 04:11:57;;;;;;;16.25;12.02;;;;;;;;;;4976559;28;20548;-84
2024/01/30 04:14:23;;;;;;;16.08;10.50;;;;;;;;;;4988307;28;20049;-84
2024/01/30 04:16:50;;;;;;;15.82;11.85;;;;;;;;;;5002516;28;20046;-84
2024/01/30 04:19:16;;;;;;;15.32;11.25;;;;;;;;;;4993133;28;20034;-84
2024/01/30 04:21:42;;;;;;;14.13;10.80;;;;;;;;;;4980714;28;20041;-84
2024/01/30 04:24:08;;;;;;;16.05;12.18;;;;;;;;;;4978959;28;20128;-85
2024/01/30 04:26:34;;;;;;;14.82;11.80;;;;;;;;;;4988527;28;20426;-83
2024/01/30 04:29:00;;;;;;;14.75;11.02;;;;;;;;;;4979470;28;20120;-84
2024/01/30 04:31:26;;;;;;;15.77;10.43;;;;;;;;;;4984226;28;20047;-84
2024/01/30 04:33:52;;;;;;;16.65;10.50;;;;;;;;;;4983576;28;20042;-85
2024/01/30 04:36:18;;;;;;;14.48;10.55;;;;;;;;;;4988636;28;20450;-84
2024/01/30 04:38:45;;;;;;;15.90;11.35;;;;;;;;;;4972873;28;20379;-84
2024/01/30 04:41:11;;;;;;;16.52;11.93;;;;;;;;;;4988033;28;20045;-84
2024/01/30 04:43:37;;;;;;;17.40;11.38;;;;;;;;;;4953976;28;20042;-84
2024/01/30 04:46:05;;;;;;;18.10;11.85;;;;;;;;;;4957046;28;20050;-84
2024/01/30 04:48:31;;;;;;;13.68;10.90;;;;;;;;;;4976497;28;20402;-85
2024/01/30 04:50:57;;;;;;;14.43;10.82;;;;;;;;;;4976827;28;20050;-84
2024/01/30 04:53:23;;;;;;;15.40;11.35;;;;;;;;;;4975172;28;20042;-84
2024/01/30 04:55:50;;;;;;;16.90;10.70;;;;;;;;;;4992778;28;20038;-84
2024/01/30 04:58:16;;;;;;;14.43;10.98;;;;;;;;;;4989783;28;20038;-84
2024/01/30 05:00:42;;;;;;;15.48;10.50;;;;;;;;;;4987970;28;20062;-84
2024/01/30 05:03:08;;;;;;;19.33;11.95;;;;;;;;;;4971998;28;20457;-83
2024/01/30 05:05:34;;;;;;;16.35;11.13;;;;;;;;;;4987357;28;20105;-84
2024/01/30 05:08:00;;;;;;;17.48;10.55;;;;;;;;;;4971857;28;20121;-84
2024/01/30 05:10:28;;;;;;;15.23;11.73;;;;;;;;;;4968697;28;20118;-84
2024/01/30 05:12:54;;;;;;;17.58;11.63;;;;;;;;;;4983012;28;20197;-84
2024/01/30 05:15:20;;;;;;;15.02;11.18;;;;;;;;;;4988456;28;20046;-84
2024/01/30 05:17:46;;;;;;;15.05;10.88;;;;;;;;;;4968839;28;20462;-84
2024/01/30 05:20:13;;;;;;;13.40;9.73;;;;;;;;;;4973647;28;20125;-85
2024/01/30 05:22:44;;;;;;;13.02;10.27;;;;;;;;;;5015467;28;20281;-84
2024/01/30 05:25:11;;;;;;;16.63;11.55;;;;;;;;;;4996739;28;20038;-85
2024/01/30 05:27:37;;;;;;;15.63;11.15;;;;;;;;;;4988092;28;20177;-85
2024/01/30 05:30:04;;;;;;;14.57;10.15;;;;;;;;;;4972029;28;20043;-84
2024/01/30 05:32:30;;;;;;;13.05;10.07;;;;;;;;;;4970718;28;20137;-84
2024/01/30 05:34:56;;;;;;;17.73;10.68;;;;;;;;;;4999937;28;20494;-84
2024/01/30 05:37:22;;;;;;;18.05;10.57;;;;;;;;;;4974397;28;20041;-84
2024/01/30 05:39:49;;;;;;;16.38;12.25;;;;;;;;;;4970117;28;20136;-84
2024/01/30 05:42:16;;;;;;;13.07;10.35;;;;;;;;;;4975444;28;20042;-84
2024/01/30 05:44:43;;;;;;;13.75;10.77;;;;;;;;;;4974996;28;20031;-84
2024/01/30 05:47:09;;;;;;;14.63;10.35;;;;;;;;;;4976976;28;20509;-84
2024/01/30 05:49:35;;;;;;;14.00;10.75;;;;;;;;;;4991863;28;20157;-84
2024/01/30 05:52:03;;;;;;;14.60;10.82;;;;;;;;;;4991457;28;20038;-84
2024/01/30 05:54:29;;;;;;;15.25;10.82;;;;;;;;;;4993127;28;20066;-84
2024/01/30 05:56:55;;;;;;;13.05;10.00;;;;;;;;;;5024373;28;20394;-84
2024/01/30 05:59:21;;;;;;;14.57;9.90;;;;;;;;;;4992270;28;20851;-84
2024/01/30 06:01:48;;;;;;;18.05;10.98;;;;;;;;;;5004602;28;20043;-84
2024/01/30 06:04:14;;;;;;;15.93;11.05;;;;;;;;;;4976239;28;20112;-84
2024/01/30 06:06:42;;;;;;;15.80;11.40;;;;;;;;;;4991353;28;20073;-84
2024/01/30 06:09:09;;;;;;;14.15;10.35;;;;;;;;;;4991278;28;20050;-84
2024/01/30 06:11:35;;;;;;;16.60;10.27;;;;;;;;;;4977215;28;20453;-84
2024/01/30 06:14:01;;;;;;;18.75;11.45;;;;;;;;;;5026647;28;20071;-84
2024/01/30 06:16:29;;;;;;;13.68;10.60;;;;;;;;;;4995660;28;20064;-84
2024/01/30 06:18:55;;;;;;;16.52;10.90;;;;;;;;;;4961985;28;20057;-84
2024/01/30 06:21:22;;;;;;;14.15;11.13;;;;;;;;;;4992332;28;20041;-85
2024/01/30 06:23:48;;;;;;;14.80;9.80;;;;;;;;;;4994423;28;20034;-85
2024/01/30 06:26:14;;;;;;;15.55;11.38;;;;;;;;;;4979983;28;20038;-85
2024/01/30 06:28:40;;;;;;;15.60;9.88;;;;;;;;;;4996091;28;20414;-85
2024/01/30 06:31:07;;;;;;;15.55;11.18;;;;;;;;;;5026066;28;20080;-84
2024/01/30 06:33:33;;;;;;;14.85;11.00;;;;;;;;;;4996088;28;20058;-85
2024/01/30 06:35:59;;;;;;;13.05;10.07;;;;;;;;;;4991391;28;20054;-85
2024/01/30 06:41:01;;;;;;;16.27;10.02;;;;;;;;;;4488343;22;20062;-64
2024/01/30 06:43:47;;;;;;;13.02;10.63;;;;;;;;;;4974356;28;20144;-63
2024/01/30 06:46:13;;;;;;;13.77;10.43;;;;;;;;;;4982209;28;20495;-63
2024/01/30 06:48:40;;;;;;;19.13;11.23;;;;;;;;;;4978164;28;20101;-63
2024/01/30 06:51:07;;;;;;;16.88;11.43;;;;;;;;;;4989476;28;20105;-63
2024/01/30 06:53:33;;;;;;;14.98;11.15;;;;;;;;;;4988634;28;20070;-63
2024/01/30 06:55:59;;;;;;;14.32;10.63;;;;;;;;;;4986334;28;20049;-62
2024/01/30 06:58:26;;;;;;;13.48;9.98;;;;;;;;;;4981583;28;20042;-63
2024/01/30 07:00:52;;;;;;;16.50;11.68;;;;;;;;;;4981727;28;20053;-63
2024/01/30 07:03:18;;;;;;;18.25;11.13;;;;;;;;;;4989358;28;20038;-63
2024/01/30 07:05:44;;;;;;;14.65;10.98;;;;;;;;;;4983061;28;20070;-63
2024/01/30 07:08:10;;;;;;;14.63;9.68;;;;;;;;;;4987855;28;20050;-63
2024/01/30 07:10:36;;;;;;;14.98;10.98;;;;;;;;;;4978004;28;20487;-63
2024/01/30 07:13:04;;;;;;;12.95;10.13;;;;;;;;;;4983346;28;20031;-63
2024/01/30 07:15:30;;;;;;;14.13;10.00;;;;;;;;;;4969318;28;20042;-63
2024/01/30 07:17:56;;;;;;;16.85;12.27;;;;;;;;;;4984765;28;20038;-63
2024/01/30 07:20:22;;;;;;;16.58;10.68;;;;;;;;;;4986039;28;20078;-63
2024/01/30 07:22:48;;;;;;;16.02;11.13;;;;;;;;;;4988596;28;20517;-62
2024/01/30 07:25:15;;;;;;;13.27;10.07;;;;;;;;;;4979803;28;20047;-63
2024/01/30 07:27:41;;;;;;;13.30;10.02;;;;;;;;;;4981027;28;20093;-63
2024/01/30 07:30:07;;;;;;;14.88;10.27;;;;;;;;;;4985039;28;20091;-62
2024/01/30 07:32:33;;;;;;;15.23;11.30;;;;;;;;;;4985982;28;20153;-62
2024/01/30 07:34:59;;;;;;;17.08;11.27;;;;;;;;;;4978361;28;20161;-62
2024/01/30 07:37:26;;;;;;;15.43;9.88;;;;;;;;;;4979187;28;20046;-62
2024/01/30 07:39:52;;;;;;;16.08;10.77;;;;;;;;;;4978563;28;20096;-63
2024/01/30 07:42:18;;;;;;;14.20;9.55;;;;;;;;;;4985691;28;20093;-63
2024/01/30 07:44:44;;;;;;;14.50;9.23;;;;;;;;;;4986928;28;20034;-63
2024/01/30 07:47:10;;;;;;;15.55;9.48;;;;;;;;;;4977020;28;20052;-63
2024/01/30 07:49:39;;;;;;;21.40;9.93;;;;;;;;;;4986126;28;20057;-63
2024/01/30 07:52:06;;;;;;;19.38;10.77;;;;;;;;;;4981687;28;20356;-63
2024/01/30 07:54:33;;;;;;;13.38;10.23;;;;;;;;;;4982431;28;20109;-63
2024/01/30 07:57:01;;;;;;;16.60;10.63;;;;;;;;;;4978051;28;20118;-62
2024/01/30 07:59:27;;;;;;;12.63;9.73;;;;;;;;;;4996151;28;20042;-62
2024/01/30 08:01:53;;;;;;;14.77;10.65;;;;;;;;;;4981397;28;20515;-61
2024/01/30 08:04:19;;;;;;;13.15;8.85;;;;;;;;;;4978948;28;20073;-62
2024/01/30 08:06:45;;;;;;;13.63;9.63;;;;;;;;;;4980610;28;20050;-63
2024/01/30 08:09:11;;;;;;;14.18;10.48;;;;;;;;;;4979318;28;20057;-63
2024/01/30 08:11:37;;;;;;;15.60;10.73;;;;;;;;;;4984419;28;20065;-61
2024/01/30 08:14:03;;;;;;;13.15;9.48;;;;;;;;;;4984928;28;20042;-60
2024/01/30 08:16:29;;;;;;;14.00;10.38;;;;;;;;;;4975333;28;20045;-61
2024/01/30 08:18:57;;;;;;;15.85;9.80;;;;;;;;;;4986933;28;20053;-60
2024/01/30 08:21:24;;;;;;;16.85;9.77;;;;;;;;;;4985183;28;20136;-61
2024/01/30 08:23:50;;;;;;;18.92;10.38;;;;;;;;;;4985866;28;20134;-61
2024/01/30 08:26:16;;;;;;;12.02;10.00;;;;;;;;;;4980036;28;20047;-61
2024/01/30 08:28:42;;;;;;;14.63;10.52;;;;;;;;;;4994185;28;20053;-63
2024/01/30 08:31:11;;;;;;;12.38;9.70;;;;;;;;;;4974152;28;20052;-61
2024/01/30 08:33:38;;;;;;;12.48;8.98;;;;;;;;;;4985957;28;20038;-61
2024/01/30 08:36:04;;;;;;;13.38;9.15;;;;;;;;;;4980071;28;20066;-61
2024/01/30 08:38:30;;;;;;;12.77;9.00;;;;;;;;;;4981564;28;20042;-61
2024/01/30 08:40:57;;;;;;;12.45;10.38;;;;;;;;;;4984135;28;20388;-63
2024/01/30 08:43:23;;;;;;;14.30;8.48;;;;;;;;;;4983625;28;20065;-61
2024/01/30 08:45:49;;;;;;;11.98;8.60;;;;;;;;;;4980126;28;20042;-60
2024/01/30 08:48:15;;;;;;;12.13;8.27;;;;;;;;;;4981084;28;20042;-61
2024/01/30 08:50:41;;;;;;;16.02;9.52;;;;;;;;;;4997500;28;20138;-61
2024/01/30 08:53:07;;;;;;;14.82;9.73;;;;;;;;;;5016200;28;20034;-61
2024/01/30 08:55:33;;;;;;;12.02;9.15;;;;;;;;;;4983379;28;20041;-60
2024/01/30 08:57:59;;;;;;;11.63;8.23;;;;;;;;;;4983830;28;20117;-60
2024/01/30 09:00:26;;;;;;;11.68;8.30;;;;;;;;;;4984637;28;20074;-61
2024/01/30 09:02:52;;;;;;;15.98;9.02;;;;;;;;;;4979219;28;20046;-61
2024/01/30 09:05:18;;;;;;;11.98;8.63;;;;;;;;;;4974728;28;20064;-61
2024/01/30 09:07:45;;;;;;;13.60;9.80;;;;;;;;;;4979240;28;20103;-61
2024/01/30 09:10:11;;;;;;;16.75;10.02;;;;;;;;;;4984610;28;20097;-60
2024/01/30 09:12:38;;;;;;;11.63;8.80;;;;;;;;;;4977733;28;20148;-61
2024/01/30 09:15:04;;;;;;;11.73;9.05;;;;;;;;;;4985327;28;20046;-61
2024/01/30 09:17:30;;;;;;;17.17;9.27;;;;;;;;;;4984843;28;20042;-62
2024/01/30 09:19:56;;;;;;;14.68;9.57;;;;;;;;;;4978492;28;20523;-62
2024/01/30 09:22:22;;;;;;;14.73;9.70;;;;;;;;;;4975671;28;20404;-61
2024/01/30 09:24:49;;;;;;;12.15;8.15;;;;;;;;;;4976043;28;20101;-61
2024/01/30 09:27:15;;;;;;;11.80;8.73;;;;;;;;;;4984397;28;20050;-61
2024/01/30 09:29:41;;;;;;;13.20;8.20;;;;;;;;;;4978363;28;20046;-62
2024/01/30 09:32:09;;;;;;;12.10;8.35;;;;;;;;;;4978014;28;20882;-61
2024/01/30 09:34:35;;;;;;;13.50;8.77;;;;;;;;;;4972079;28;20429;-61
2024/01/30 09:37:01;;;;;;;12.43;7.85;;;;;;;;;;4979040;28;20057;-62
2024/01/30 09:39:27;;;;;;;13.40;9.02;;;;;;;;;;4976099;28;20046;-62
2024/01/30 09:42:02;;;;;;;11.88;8.30;;;;;;;;;;4983892;28;20110;-61
2024/01/30 09:44:30;;;;;;;14.90;8.32;;;;;;;;;;4983931;28;20050;-61
2024/01/30 09:47:03;;;;;;;13.88;7.88;;;;;;;;;;4971446;28;20194;-61
2024/01/30 09:49:30;;;;;;;15.77;8.98;;;;;;;;;;4995388;28;20038;-61
2024/01/30 09:51:56;;;;;;;13.13;8.50;;;;;;;;;;4983699;28;20582;-61
2024/01/30 09:54:22;;;;;;;12.00;8.50;;;;;;;;;;4995574;28;20096;-62
2024/01/30 09:56:48;;;;;;;13.55;8.75;;;;;;;;;;4977111;28;20042;-62
2024/01/30 09:59:15;;;;;;;14.52;9.32;;;;;;;;;;5008887;28;20795;-62
2024/01/30 10:01:41;;;;;;;13.55;9.00;;;;;;;;;;4980377;28;20108;-61
2024/01/30 10:04:07;;;;;;;15.00;10.07;;;;;;;;;;4990754;28;20039;-61
2024/01/30 10:06:34;;;;;;;12.40;9.05;;;;;;;;;;4978290;28;20065;-61
2024/01/30 10:09:00;;;;;;;13.57;7.78;;;;;;;;;;4978111;28;20046;-62
2024/01/30 10:11:26;;;;;;;13.82;7.85;;;;;;;;;;4979484;28;20069;-61
2024/01/30 10:13:52;;;;;;;12.50;8.10;;;;;;;;;;4984131;28;20043;-61
2024/01/30 10:16:18;;;;;;;15.65;10.07;;;;;;;;;;4980423;28;20372;-62
2024/01/30 10:18:45;;;;;;;16.73;7.68;;;;;;;;;;4985020;28;20034;-59
2024/01/30 10:21:11;;;;;;;11.13;7.97;;;;;;;;;;5001515;28;20050;-61
2024/01/30 10:23:37;;;;;;;17.13;8.50;;;;;;;;;;4988257;28;20045;-60
2024/01/30 10:26:04;;;;;;;12.80;8.52;;;;;;;;;;4974895;28;20043;-61
2024/01/30 10:28:31;;;;;;;13.18;8.07;;;;;;;;;;4984896;28;20037;-61
2024/01/30 10:31:00;;;;;;;12.63;8.98;;;;;;;;;;4986217;28;20060;-61
2024/01/30 10:33:27;;;;;;;13.40;8.70;;;;;;;;;;4977770;28;20546;-61
2024/01/30 10:35:56;;;;;;;13.23;8.57;;;;;;;;;;4985776;28;20041;-61
2024/01/30 10:38:24;;;;;;;16.67;8.55;;;;;;;;;;4986669;28;20049;-62
2024/01/30 10:40:52;;;;;;;9.63;7.25;;;;;;;;;;4980785;28;20067;-62
2024/01/30 10:43:21;;;;;;;13.18;8.10;;;;;;;;;;4984479;28;20085;-62
2024/01/30 10:45:50;;;;;;;13.02;8.55;;;;;;;;;;4986888;28;20066;-62
2024/01/30 10:48:17;;;;;;;9.63;6.78;;;;;;;;;;4978729;28;20459;-62
2024/01/30 10:50:43;;;;;;;9.93;7.05;;;;;;;;;;4978475;28;20073;-62
2024/01/30 10:53:10;;;;;;;8.95;6.65;;;;;;;;;;4980353;28;20121;-62
2024/01/30 10:55:37;;;;;;;11.13;5.72;;;;;;;;;;4986767;28;20117;-62
2024/01/30 10:58:04;;;;;;;12.45;6.80;;;;;;;;;;4979882;28;20035;-62
2024/01/30 11:00:33;;;;;;;11.02;6.43;;;;;;;;;;4985490;28;20129;-62
2024/01/30 11:02:59;;;;;;;9.82;6.45;;;;;;;;;;4985090;28;20053;-62
2024/01/30 11:05:29;;;;;;;12.63;5.63;;;;;;;;;;4982649;28;20054;-62
2024/01/30 11:07:55;;;;;;;10.23;4.68;;;7.50;99.90;;;;;;4984707;28;20108;-62
2024/01/30 11:10:21;;;;;;;10.50;4.20;;;;;;;;;;5016955;28;20304;-62
2024/01/30 11:12:47;;;;;;;6.85;3.83;;;8.50;99.90;;;;;;4980090;28;20050;-62
2024/01/30 11:15:15;;;;;;;6.60;3.80;;;8.50;99.90;;;;;;4982918;28;20138;-62
2024/01/30 11:17:53;;;;;;;6.20;4.28;;;8.50;99.90;;;;;;4986304;28;20121;-62
2024/01/30 11:20:27;;;;;;;8.48;3.20;;;8.50;99.90;;;;;;4982186;28;20054;-62
2024/01/30 11:22:55;;;;;;;8.32;3.67;;;8.50;99.90;;;;;;4980708;28;20054;-62
2024/01/30 11:25:23;;;;;;;5.78;2.80;;;8.50;99.90;;;;;;4982343;28;20057;-61
2024/01/30 11:27:53;;;;;;;6.72;3.08;;;8.60;99.90;;;;;;4982178;28;20136;-62
2024/01/30 11:30:25;;;;;;;5.63;2.60;;;8.60;99.90;;;;;;4984813;28;20117;-62
2024/01/30 11:33:04;;;;;;;5.50;2.08;;;8.60;99.90;;;;;;4985246;28;20361;-63
2024/01/30 11:35:39;;;;;;;3.38;2.05;;;8.60;99.90;;;;;;4980530;28;20081;-62
2024/01/30 11:38:06;;;;;;;3.05;1.70;;;8.60;99.90;;;;;;5009109;28;20062;-61
2024/01/30 11:40:33;;;;;;;5.88;2.05;;;8.60;99.90;;;;;;4982659;28;20165;-62
2024/01/30 11:43:01;;;;;;;3.85;2.15;;;8.70;99.90;;;;;;4983646;28;20121;-61
2024/01/30 11:45:28;;;;;;;4.72;1.98;;;8.60;99.90;;;;;;5000219;28;20242;-61
2024/01/30 11:47:54;;;;;;;4.00;2.22;;;8.70;99.90;;;;;;4979827;28;20053;-62
2024/01/30 11:50:20;;;;;;;4.72;2.38;;;8.70;99.90;;;;;;5011540;28;20209;-63
2024/01/30 11:52:47;;;;;;;7.78;2.53;;;8.70;99.90;;;;;;4997218;28;20065;-62
2024/01/30 11:55:14;;;;;;;6.40;2.35;;;8.70;99.90;;;;;;4990816;28;20129;-62
2024/01/30 11:57:40;;;;;;;6.10;2.55;;;8.70;99.90;;;;;;4983731;28;20045;-62
2024/01/30 12:00:10;;;;;;;9.27;3.20;;;8.70;99.90;;;;;;4982922;28;20046;-62
2024/01/30 12:02:42;;;;;;;5.72;2.25;;;8.70;99.90;;;;;;4973878;28;20061;-62
2024/01/30 12:05:12;;;;;;;3.80;2.15;;;8.70;99.90;;;;;;4983751;28;20031;-62
2024/01/30 12:07:38;;;;;;;4.70;1.85;;;8.70;99.90;;;;;;4984075;28;20480;-62
2024/01/30 12:10:05;;;;;;;6.03;1.60;;;8.80;99.90;;;;;;4983969;28;20103;-63
2024/01/30 12:12:31;;;;;;;4.93;2.08;;;8.80;99.90;;;;;;4996826;28;20252;-62
2024/01/30 12:14:57;;;;;;;4.32;1.63;;;8.80;99.90;;;;;;4975590;28;20446;-62
2024/01/30 12:17:31;;;;;;;7.22;2.05;;;8.80;99.90;;;;;;4983562;28;20115;-62
2024/01/30 12:20:07;;;;;;;5.05;1.60;;;8.90;99.90;;;;;;4977491;28;20054;-62
2024/01/30 12:22:39;;;;;;;4.30;1.63;;;9.00;99.90;;;;;;4984880;28;20085;-63
2024/01/30 12:25:08;;;;;;;5.72;1.60;;;9.00;99.90;;;;;;4981531;28;20069;-63
2024/01/30 12:27:34;;;;;;;2.50;1.30;;;9.00;99.90;;;;;;4984846;28;20038;-62
2024/01/30 12:30:00;;;;;;;3.72;1.85;;;9.00;99.90;;;;;;4984484;28;20042;-62
2024/01/30 12:32:26;;;;;;;6.50;1.80;;;9.00;99.90;;;;;;4981412;28;20555;-62
2024/01/30 12:34:56;;;;;;;4.47;1.92;;;9.00;99.90;;;;;;4980691;28;20074;-62
2024/01/30 12:37:24;;;;;;;2.67;1.33;;;9.00;99.90;;;;;;4982402;28;20469;-62
2024/01/30 12:39:52;;;;;;;3.10;1.50;;;9.10;99.90;;;;;;4978750;28;20054;-62
2024/01/30 12:42:19;;;;;;;2.53;1.55;;;9.10;99.90;;;;;;4974970;28;20070;-62
2024/01/30 12:44:45;;;;;;;7.13;1.75;;;9.10;99.90;;;;;;4983433;28;20038;-62
2024/01/30 12:47:10;;;;;;;6.55;2.17;;;9.10;99.90;;;;;;4980341;28;20108;-62
2024/01/30 12:49:36;;;;;;;6.78;2.65;;;9.10;99.90;;;;;;4975041;28;20546;-62
2024/01/30 12:52:02;;;;;;;4.35;1.63;;;9.10;99.90;;;;;;4979996;28;20128;-62
2024/01/30 12:54:28;;;;;;;2.60;1.20;;;9.10;99.90;;;;;;4983787;28;20044;-63
2024/01/30 12:56:54;;;;;;;4.20;1.75;;;9.10;99.90;;;;;;4984539;28;20467;-62
2024/01/30 12:59:19;;;;;;;3.08;1.50;;;9.10;99.90;;;;;;4983749;28;20050;-62
2024/01/30 13:01:45;;;;;;;4.60;1.20;;;9.10;99.90;;;;;;4985428;28;20053;-62
2024/01/30 13:04:11;;;;;;;4.70;2.22;;;9.10;99.90;;;;;;4985468;28;20034;-62
2024/01/30 13:06:37;;;;;;;3.10;1.60;;;9.10;99.90;;;;;;4979658;28;20042;-62
2024/01/30 13:09:06;;;;;;;4.75;1.63;;;9.10;99.90;;;;;;4984463;28;20070;-62
2024/01/30 13:11:32;;;;;;;3.35;1.70;;;;;;;;;;4985594;28;20128;-61
2024/01/30 13:13:58;;;;;;;6.80;1.85;;;;;;;;;;4986660;28;20038;-61
2024/01/30 13:16:24;;;;;;;4.88;1.65;;;;;;;;;;4984987;28;20457;-62
2024/01/30 13:18:51;;;;;;;3.65;1.33;;;;;;;;;;4977765;28;20046;-62
2024/01/30 13:21:17;;;;;;;2.22;1.50;;;;;;;;;;4981095;28;20049;-62
2024/01/30 13:23:43;;;;;;;5.00;1.55;;;;;;;;;;4978702;28;20106;-62
2024/01/30 13:26:09;;;;;;;5.45;2.00;;;;;;;;;;4976480;28;20415;-62
2024/01/30 13:28:36;;;;;;;7.40;2.50;;;;;;;;;;4976645;28;20042;-62
2024/01/30 13:31:02;;;;;;;6.75;2.30;;;;;;;;;;4979193;28;20102;-62
2024/01/30 13:33:28;;;;;;;4.20;1.83;;;;;;;;;;4981565;28;20537;-62
2024/01/30 13:35:54;;;;;;;2.33;1.77;;;;;;;;;;4977729;28;20173;-62
2024/01/30 13:38:20;;;;;;;4.50;2.22;;;;;;;;;;4979964;28;20503;-62
2024/01/30 13:40:47;;;;;;;2.92;1.30;;;;;;;;;;4981428;28;20167;-62
2024/01/30 13:43:13;;;;;;;3.60;2.42;;;;;;;;;;4981781;28;20116;-62
2024/01/30 13:45:39;;;;;;;4.18;2.20;;;;;;;;;;4979855;28;20142;-62
2024/01/30 13:48:06;;;;;;;2.70;2.15;;;;;;;;;;4982848;28;20049;-62
2024/01/30 13:50:33;;;;;;;5.68;2.30;;;;;;;;;;4984398;28;20057;-62
2024/01/30 13:52:59;;;;;;;4.03;2.50;;;;;;;;;;4980451;28;20368;-62
2024/01/30 13:55:25;;;;;;;2.78;2.13;;;;;;;;;;4985609;28;20157;-62
2024/01/30 13:57:51;;;;;;;3.97;2.63;;;;;;;;;;4979030;28;20085;-62
2024/01/30 14:00:17;;;;;;;3.42;2.20;;;;;;;;;;4984662;28;20104;-62
2024/01/30 14:02:44;;;;;;;4.60;1.98;;;;;;;;;;4986886;28;20046;-62
2024/01/30 14:05:10;;;;;;;4.70;2.38;;;;;;;;;;4980797;28;20653;-63
2024/01/30 14:07:36;;;;;;;4.28;2.50;;;;;;;;;;4982482;28;20081;-62